Treetop, North Carolina
Current Conditions -  °F | °C
As of 9:35 AM on Thursday 29 Jan 2015 (Local Time) from KGEV Reporting Station
Clear Clear  
Wind Chill: 27°   Ceiling: Unl
Heat Index: 34°   Visibility: 10mi
Dew Point: 16°   Wind: 8mph
Humidity: 49%   Direction: 160°SSE
Pressure: 30.15"   Gusts: NA
Location:  36.358°N, 81.4709°W
Report Text: KGEV 291435Z AUTO 16007KT 10SM CLR 01/M09 A3015 RMK AO2 T00101087
Loading
Personal Weather Stations






























Interactive Weather Map New forecast layout! Learn more

10-Day Weather Forecast

Advertisements
Track Severe Weather on mobile